sensor_id;sensor_type;location;lat;lon;timestamp;P1;durP1;ratioP1;P2;durP2;ratioP2
8663;SDS011;4369;47.842;13.096;2022-11-15T00:01:14;6.77;;;6.00;;
8663;SDS011;4369;47.842;13.096;2022-11-15T00:03:43;7.17;;;5.40;;
8663;SDS011;4369;47.842;13.096;2022-11-15T00:06:10;6.70;;;5.90;;
8663;SDS011;4369;47.842;13.096;2022-11-15T00:08:37;6.23;;;5.50;;
8663;SDS011;4369;47.842;13.096;2022-11-15T00:11:04;6.60;;;5.17;;
8663;SDS011;4369;47.842;13.096;2022-11-15T00:13:32;6.70;;;6.00;;
8663;SDS011;4369;47.842;13.096;2022-11-15T00:15:59;6.87;;;5.57;;
8663;SDS011;4369;47.842;13.096;2022-11-15T00:18:27;7.73;;;6.23;;
8663;SDS011;4369;47.842;13.096;2022-11-15T00:20:55;7.20;;;6.20;;
8663;SDS011;4369;47.842;13.096;2022-11-15T00:23:21;7.23;;;6.13;;
8663;SDS011;4369;47.842;13.096;2022-11-15T00:25:54;8.10;;;6.17;;
8663;SDS011;4369;47.842;13.096;2022-11-15T00:28:22;8.43;;;6.43;;
8663;SDS011;4369;47.842;13.096;2022-11-15T00:30:50;7.67;;;5.77;;
8663;SDS011;4369;47.842;13.096;2022-11-15T00:33:17;8.00;;;6.83;;
8663;SDS011;4369;47.842;13.096;2022-11-15T00:35:44;7.17;;;6.17;;
8663;SDS011;4369;47.842;13.096;2022-11-15T00:38:11;7.77;;;5.63;;
8663;SDS011;4369;47.842;13.096;2022-11-15T00:40:38;5.83;;;5.00;;
8663;SDS011;4369;47.842;13.096;2022-11-15T00:43:04;6.27;;;5.33;;
8663;SDS011;4369;47.842;13.096;2022-11-15T00:45:31;7.07;;;5.57;;
8663;SDS011;4369;47.842;13.096;2022-11-15T00:48:00;6.23;;;5.40;;
8663;SDS011;4369;47.842;13.096;2022-11-15T00:50:26;7.23;;;5.43;;
8663;SDS011;4369;47.842;13.096;2022-11-15T00:52:53;6.87;;;5.87;;
8663;SDS011;4369;47.842;13.096;2022-11-15T00:55:20;8.10;;;5.80;;
8663;SDS011;4369;47.842;13.096;2022-11-15T00:57:47;8.77;;;5.77;;
8663;SDS011;4369;47.842;13.096;2022-11-15T01:00:14;7.07;;;5.60;;
8663;SDS011;4369;47.842;13.096;2022-11-15T01:02:41;6.20;;;5.60;;
8663;SDS011;4369;47.842;13.096;2022-11-15T01:05:09;8.07;;;6.00;;
8663;SDS011;4369;47.842;13.096;2022-11-15T01:07:36;7.17;;;5.17;;
8663;SDS011;4369;47.842;13.096;2022-11-15T01:10:03;5.70;;;5.03;;
8663;SDS011;4369;47.842;13.096;2022-11-15T01:12:31;6.50;;;5.20;;
8663;SDS011;4369;47.842;13.096;2022-11-15T01:14:58;5.77;;;5.20;;
8663;SDS011;4369;47.842;13.096;2022-11-15T01:17:25;5.90;;;5.23;;
8663;SDS011;4369;47.842;13.096;2022-11-15T01:19:52;7.00;;;5.60;;
8663;SDS011;4369;47.842;13.096;2022-11-15T01:22:20;6.33;;;5.10;;
8663;SDS011;4369;47.842;13.096;2022-11-15T01:24:48;7.27;;;5.93;;
8663;SDS011;4369;47.842;13.096;2022-11-15T01:27:15;6.80;;;5.67;;
8663;SDS011;4369;47.842;13.096;2022-11-15T01:29:42;9.50;;;6.03;;
8663;SDS011;4369;47.842;13.096;2022-11-15T01:32:09;6.83;;;6.03;;
8663;SDS011;4369;47.842;13.096;2022-11-15T01:34:36;7.80;;;6.27;;
8663;SDS011;4369;47.842;13.096;2022-11-15T01:37:03;7.93;;;6.43;;
8663;SDS011;4369;47.842;13.096;2022-11-15T01:39:31;8.47;;;6.80;;
8663;SDS011;4369;47.842;13.096;2022-11-15T01:41:58;7.57;;;6.00;;
8663;SDS011;4369;47.842;13.096;2022-11-15T01:44:31;6.83;;;6.03;;
8663;SDS011;4369;47.842;13.096;2022-11-15T01:47:05;7.17;;;5.63;;
8663;SDS011;4369;47.842;13.096;2022-11-15T01:49:35;7.40;;;5.87;;
8663;SDS011;4369;47.842;13.096;2022-11-15T01:52:09;7.27;;;6.30;;
8663;SDS011;4369;47.842;13.096;2022-11-15T01:54:41;7.97;;;5.90;;
8663;SDS011;4369;47.842;13.096;2022-11-15T01:57:09;6.30;;;5.10;;
8663;SDS011;4369;47.842;13.096;2022-11-15T01:59:38;5.20;;;4.60;;
8663;SDS011;4369;47.842;13.096;2022-11-15T02:02:08;5.87;;;5.00;;
8663;SDS011;4369;47.842;13.096;2022-11-15T02:04:36;5.87;;;5.00;;
8663;SDS011;4369;47.842;13.096;2022-11-15T02:07:06;6.43;;;4.87;;
8663;SDS011;4369;47.842;13.096;2022-11-15T02:09:35;6.27;;;4.73;;
8663;SDS011;4369;47.842;13.096;2022-11-15T02:12:05;4.60;;;4.17;;
8663;SDS011;4369;47.842;13.096;2022-11-15T02:14:34;5.57;;;4.40;;
8663;SDS011;4369;47.842;13.096;2022-11-15T02:17:06;7.53;;;4.30;;
8663;SDS011;4369;47.842;13.096;2022-11-15T02:19:55;4.53;;;4.13;;
8663;SDS011;4369;47.842;13.096;2022-11-15T02:22:52;4.13;;;3.70;;
8663;SDS011;4369;47.842;13.096;2022-11-15T02:25:37;4.30;;;3.90;;
8663;SDS011;4369;47.842;13.096;2022-11-15T02:28:14;4.77;;;4.37;;
8663;SDS011;4369;47.842;13.096;2022-11-15T02:31:09;6.37;;;4.13;;
8663;SDS011;4369;47.842;13.096;2022-11-15T02:33:41;5.10;;;4.00;;
8663;SDS011;4369;47.842;13.096;2022-11-15T02:36:18;5.10;;;4.20;;
8663;SDS011;4369;47.842;13.096;2022-11-15T02:38:57;5.80;;;5.20;;
8663;SDS011;4369;47.842;13.096;2022-11-15T02:41:28;5.60;;;5.10;;
8663;SDS011;4369;47.842;13.096;2022-11-15T02:43:59;4.77;;;4.27;;
8663;SDS011;4369;47.842;13.096;2022-11-15T02:46:32;6.43;;;4.07;;
8663;SDS011;4369;47.842;13.096;2022-11-15T02:49:20;5.07;;;4.27;;
8663;SDS011;4369;47.842;13.096;2022-11-15T02:51:48;7.27;;;4.17;;
8663;SDS011;4369;47.842;13.096;2022-11-15T02:54:19;4.47;;;4.07;;
8663;SDS011;4369;47.842;13.096;2022-11-15T02:56:48;5.83;;;4.57;;
8663;SDS011;4369;47.842;13.096;2022-11-15T02:59:26;5.47;;;4.30;;
8663;SDS011;4369;47.842;13.096;2022-11-15T03:02:11;5.30;;;4.20;;
8663;SDS011;4369;47.842;13.096;2022-11-15T03:04:51;5.40;;;4.53;;
8663;SDS011;4369;47.842;13.096;2022-11-15T03:07:23;5.30;;;4.70;;
8663;SDS011;4369;47.842;13.096;2022-11-15T03:09:56;5.07;;;4.40;;
8663;SDS011;4369;47.842;13.096;2022-11-15T03:12:33;4.97;;;4.23;;
8663;SDS011;4369;47.842;13.096;2022-11-15T03:15:08;5.47;;;4.40;;
8663;SDS011;4369;47.842;13.096;2022-11-15T03:17:40;4.30;;;3.90;;
8663;SDS011;4369;47.842;13.096;2022-11-15T03:20:13;5.00;;;4.40;;
8663;SDS011;4369;47.842;13.096;2022-11-15T03:22:44;4.20;;;3.80;;
8663;SDS011;4369;47.842;13.096;2022-11-15T03:25:16;6.13;;;4.10;;
8663;SDS011;4369;47.842;13.096;2022-11-15T03:27:47;5.10;;;4.27;;
8663;SDS011;4369;47.842;13.096;2022-11-15T03:30:18;4.30;;;3.90;;
8663;SDS011;4369;47.842;13.096;2022-11-15T03:32:47;6.30;;;4.30;;
8663;SDS011;4369;47.842;13.096;2022-11-15T03:35:17;5.60;;;4.57;;
8663;SDS011;4369;47.842;13.096;2022-11-15T03:37:52;6.97;;;5.43;;
8663;SDS011;4369;47.842;13.096;2022-11-15T03:40:23;5.73;;;4.80;;
8663;SDS011;4369;47.842;13.096;2022-11-15T03:42:54;5.03;;;4.20;;
8663;SDS011;4369;47.842;13.096;2022-11-15T03:45:28;6.23;;;4.50;;
8663;SDS011;4369;47.842;13.096;2022-11-15T03:48:01;5.23;;;4.47;;
8663;SDS011;4369;47.842;13.096;2022-11-15T03:50:33;5.87;;;4.07;;
8663;SDS011;4369;47.842;13.096;2022-11-15T03:53:00;5.57;;;4.20;;
8663;SDS011;4369;47.842;13.096;2022-11-15T03:55:27;4.97;;;4.03;;
8663;SDS011;4369;47.842;13.096;2022-11-15T03:57:56;4.33;;;3.93;;
8663;SDS011;4369;47.842;13.096;2022-11-15T04:00:25;5.00;;;4.07;;
8663;SDS011;4369;47.842;13.096;2022-11-15T04:02:52;4.07;;;3.67;;
8663;SDS011;4369;47.842;13.096;2022-11-15T04:05:20;3.90;;;3.50;;
8663;SDS011;4369;47.842;13.096;2022-11-15T04:07:47;4.57;;;3.67;;
8663;SDS011;4369;47.842;13.096;2022-11-15T04:10:14;5.57;;;4.33;;
8663;SDS011;4369;47.842;13.096;2022-11-15T04:12:42;3.53;;;3.23;;
8663;SDS011;4369;47.842;13.096;2022-11-15T04:15:13;3.80;;;3.50;;
8663;SDS011;4369;47.842;13.096;2022-11-15T04:17:44;3.77;;;3.40;;
8663;SDS011;4369;47.842;13.096;2022-11-15T04:20:13;3.73;;;3.43;;
8663;SDS011;4369;47.842;13.096;2022-11-15T04:23:03;3.67;;;3.37;;
8663;SDS011;4369;47.842;13.096;2022-11-15T04:25:49;4.47;;;4.07;;
8663;SDS011;4369;47.842;13.096;2022-11-15T04:28:17;4.13;;;3.73;;
8663;SDS011;4369;47.842;13.096;2022-11-15T04:30:44;4.10;;;3.70;;
8663;SDS011;4369;47.842;13.096;2022-11-15T04:33:11;6.87;;;3.63;;
8663;SDS011;4369;47.842;13.096;2022-11-15T04:35:38;4.47;;;4.07;;
8663;SDS011;4369;47.842;13.096;2022-11-15T04:38:07;4.00;;;3.60;;
8663;SDS011;4369;47.842;13.096;2022-11-15T04:40:34;4.03;;;3.63;;
8663;SDS011;4369;47.842;13.096;2022-11-15T04:43:02;4.23;;;3.83;;
8663;SDS011;4369;47.842;13.096;2022-11-15T04:45:29;4.00;;;3.60;;
8663;SDS011;4369;47.842;13.096;2022-11-15T04:47:56;4.63;;;3.90;;
8663;SDS011;4369;47.842;13.096;2022-11-15T04:50:23;6.33;;;3.90;;
8663;SDS011;4369;47.842;13.096;2022-11-15T04:52:50;4.13;;;3.83;;
8663;SDS011;4369;47.842;13.096;2022-11-15T04:55:19;4.20;;;3.70;;
8663;SDS011;4369;47.842;13.096;2022-11-15T04:57:46;4.13;;;3.73;;
8663;SDS011;4369;47.842;13.096;2022-11-15T05:00:14;5.80;;;3.70;;
8663;SDS011;4369;47.842;13.096;2022-11-15T05:02:42;5.10;;;4.00;;
8663;SDS011;4369;47.842;13.096;2022-11-15T05:05:26;6.97;;;5.67;;
8663;SDS011;4369;47.842;13.096;2022-11-15T05:07:53;6.87;;;5.10;;
8663;SDS011;4369;47.842;13.096;2022-11-15T05:10:21;9.47;;;6.93;;
8663;SDS011;4369;47.842;13.096;2022-11-15T05:12:48;11.67;;;8.63;;
8663;SDS011;4369;47.842;13.096;2022-11-15T05:15:15;8.27;;;7.00;;
8663;SDS011;4369;47.842;13.096;2022-11-15T05:17:42;7.18;;;6.47;;
8663;SDS011;4369;47.842;13.096;2022-11-15T05:20:09;5.90;;;5.27;;
8663;SDS011;4369;47.842;13.096;2022-11-15T05:22:37;5.00;;;4.50;;
8663;SDS011;4369;47.842;13.096;2022-11-15T05:25:04;6.07;;;4.67;;
8663;SDS011;4369;47.842;13.096;2022-11-15T05:27:33;4.83;;;4.30;;
8663;SDS011;4369;47.842;13.096;2022-11-15T05:30:01;4.90;;;4.37;;
8663;SDS011;4369;47.842;13.096;2022-11-15T05:32:28;5.17;;;4.17;;
8663;SDS011;4369;47.842;13.096;2022-11-15T05:34:55;6.27;;;4.10;;
8663;SDS011;4369;47.842;13.096;2022-11-15T05:37:22;4.90;;;4.40;;
8663;SDS011;4369;47.842;13.096;2022-11-15T05:39:49;6.57;;;5.10;;
8663;SDS011;4369;47.842;13.096;2022-11-15T05:42:16;6.93;;;4.67;;
8663;SDS011;4369;47.842;13.096;2022-11-15T05:44:46;5.55;;;4.78;;
8663;SDS011;4369;47.842;13.096;2022-11-15T05:47:20;5.87;;;4.03;;
8663;SDS011;4369;47.842;13.096;2022-11-15T05:50:06;5.07;;;4.43;;
8663;SDS011;4369;47.842;13.096;2022-11-15T05:52:34;4.40;;;4.00;;
8663;SDS011;4369;47.842;13.096;2022-11-15T05:55:03;4.50;;;3.47;;
8663;SDS011;4369;47.842;13.096;2022-11-15T05:57:33;8.97;;;4.60;;
8663;SDS011;4369;47.842;13.096;2022-11-15T06:00:01;4.67;;;4.10;;
8663;SDS011;4369;47.842;13.096;2022-11-15T06:02:30;5.27;;;4.27;;
8663;SDS011;4369;47.842;13.096;2022-11-15T06:04:57;5.10;;;4.30;;
8663;SDS011;4369;47.842;13.096;2022-11-15T06:07:24;5.73;;;4.70;;
8663;SDS011;4369;47.842;13.096;2022-11-15T06:09:51;9.73;;;4.80;;
8663;SDS011;4369;47.842;13.096;2022-11-15T06:12:18;5.27;;;4.40;;
8663;SDS011;4369;47.842;13.096;2022-11-15T06:14:44;7.23;;;4.77;;
8663;SDS011;4369;47.842;13.096;2022-11-15T06:17:13;5.53;;;4.50;;
8663;SDS011;4369;47.842;13.096;2022-11-15T06:19:39;7.00;;;4.60;;
8663;SDS011;4369;47.842;13.096;2022-11-15T06:22:06;7.30;;;5.00;;
8663;SDS011;4369;47.842;13.096;2022-11-15T06:24:34;5.23;;;4.73;;
8663;SDS011;4369;47.842;13.096;2022-11-15T06:27:01;4.40;;;4.00;;
8663;SDS011;4369;47.842;13.096;2022-11-15T06:29:29;5.10;;;4.60;;
8663;SDS011;4369;47.842;13.096;2022-11-15T06:31:56;6.43;;;4.60;;
8663;SDS011;4369;47.842;13.096;2022-11-15T06:34:24;6.50;;;5.53;;
8663;SDS011;4369;47.842;13.096;2022-11-15T06:36:51;7.93;;;5.73;;
8663;SDS011;4369;47.842;13.096;2022-11-15T06:39:18;7.43;;;5.83;;
8663;SDS011;4369;47.842;13.096;2022-11-15T06:41:45;15.37;;;11.37;;
8663;SDS011;4369;47.842;13.096;2022-11-15T06:44:12;7.73;;;6.70;;
8663;SDS011;4369;47.842;13.096;2022-11-15T06:46:39;8.13;;;6.07;;
8663;SDS011;4369;47.842;13.096;2022-11-15T06:49:06;7.50;;;5.83;;
8663;SDS011;4369;47.842;13.096;2022-11-15T06:51:34;8.17;;;6.60;;
8663;SDS011;4369;47.842;13.096;2022-11-15T06:54:01;6.70;;;5.73;;
8663;SDS011;4369;47.842;13.096;2022-11-15T06:56:28;6.23;;;5.63;;
8663;SDS011;4369;47.842;13.096;2022-11-15T06:58:55;6.87;;;5.70;;
8663;SDS011;4369;47.842;13.096;2022-11-15T07:01:22;9.57;;;5.97;;
8663;SDS011;4369;47.842;13.096;2022-11-15T07:03:49;8.07;;;6.43;;
8663;SDS011;4369;47.842;13.096;2022-11-15T07:06:16;9.70;;;7.60;;
8663;SDS011;4369;47.842;13.096;2022-11-15T07:08:44;9.00;;;7.40;;
8663;SDS011;4369;47.842;13.096;2022-11-15T07:11:11;7.97;;;6.47;;
8663;SDS011;4369;47.842;13.096;2022-11-15T07:13:38;7.13;;;6.43;;
8663;SDS011;4369;47.842;13.096;2022-11-15T07:16:05;9.67;;;5.90;;
8663;SDS011;4369;47.842;13.096;2022-11-15T07:18:33;7.23;;;5.87;;
8663;SDS011;4369;47.842;13.096;2022-11-15T07:21:01;10.27;;;6.83;;
8663;SDS011;4369;47.842;13.096;2022-11-15T07:23:29;8.97;;;6.40;;
8663;SDS011;4369;47.842;13.096;2022-11-15T07:25:57;10.47;;;7.17;;
8663;SDS011;4369;47.842;13.096;2022-11-15T07:28:24;10.50;;;6.80;;
8663;SDS011;4369;47.842;13.096;2022-11-15T07:30:51;9.40;;;6.63;;
8663;SDS011;4369;47.842;13.096;2022-11-15T07:33:18;7.63;;;5.67;;
8663;SDS011;4369;47.842;13.096;2022-11-15T07:35:45;11.77;;;8.87;;
8663;SDS011;4369;47.842;13.096;2022-11-15T07:38:14;9.63;;;8.30;;
8663;SDS011;4369;47.842;13.096;2022-11-15T07:40:44;10.60;;;6.23;;
8663;SDS011;4369;47.842;13.096;2022-11-15T07:43:12;8.40;;;6.07;;
8663;SDS011;4369;47.842;13.096;2022-11-15T07:45:40;13.03;;;6.83;;
8663;SDS011;4369;47.842;13.096;2022-11-15T07:48:07;8.80;;;5.80;;
8663;SDS011;4369;47.842;13.096;2022-11-15T07:50:34;8.00;;;6.03;;
8663;SDS011;4369;47.842;13.096;2022-11-15T07:53:01;17.67;;;13.27;;
8663;SDS011;4369;47.842;13.096;2022-11-15T07:55:28;12.23;;;9.67;;
8663;SDS011;4369;47.842;13.096;2022-11-15T07:57:59;24.83;;;17.03;;
8663;SDS011;4369;47.842;13.096;2022-11-15T08:00:29;38.60;;;27.50;;
8663;SDS011;4369;47.842;13.096;2022-11-15T08:03:03;20.43;;;13.70;;
8663;SDS011;4369;47.842;13.096;2022-11-15T08:05:30;9.93;;;8.50;;
8663;SDS011;4369;47.842;13.096;2022-11-15T08:07:57;10.60;;;7.73;;
8663;SDS011;4369;47.842;13.096;2022-11-15T08:10:24;8.80;;;5.83;;
8663;SDS011;4369;47.842;13.096;2022-11-15T08:12:58;7.50;;;5.43;;
8663;SDS011;4369;47.842;13.096;2022-11-15T08:15:25;5.30;;;4.50;;
8663;SDS011;4369;47.842;13.096;2022-11-15T08:17:55;5.10;;;3.60;;
8663;SDS011;4369;47.842;13.096;2022-11-15T08:20:22;5.30;;;4.80;;
8663;SDS011;4369;47.842;13.096;2022-11-15T08:22:50;5.33;;;4.83;;
8663;SDS011;4369;47.842;13.096;2022-11-15T08:25:17;6.87;;;5.40;;
8663;SDS011;4369;47.842;13.096;2022-11-15T08:27:44;4.70;;;4.17;;
8663;SDS011;4369;47.842;13.096;2022-11-15T08:30:11;4.10;;;3.80;;
8663;SDS011;4369;47.842;13.096;2022-11-15T08:32:40;5.23;;;3.57;;
8663;SDS011;4369;47.842;13.096;2022-11-15T08:35:09;3.70;;;3.40;;
8663;SDS011;4369;47.842;13.096;2022-11-15T08:37:36;3.83;;;3.37;;
8663;SDS011;4369;47.842;13.096;2022-11-15T08:40:04;5.03;;;3.83;;
8663;SDS011;4369;47.842;13.096;2022-11-15T08:42:32;5.30;;;4.80;;
8663;SDS011;4369;47.842;13.096;2022-11-15T08:44:59;6.53;;;3.60;;
8663;SDS011;4369;47.842;13.096;2022-11-15T08:47:26;4.43;;;3.83;;
8663;SDS011;4369;47.842;13.096;2022-11-15T08:49:53;8.27;;;4.20;;
8663;SDS011;4369;47.842;13.096;2022-11-15T08:52:21;3.57;;;3.10;;
8663;SDS011;4369;47.842;13.096;2022-11-15T08:54:48;6.07;;;3.90;;
8663;SDS011;4369;47.842;13.096;2022-11-15T08:57:15;4.23;;;3.83;;
8663;SDS011;4369;47.842;13.096;2022-11-15T08:59:42;6.60;;;4.13;;
8663;SDS011;4369;47.842;13.096;2022-11-15T09:02:10;3.87;;;3.53;;
8663;SDS011;4369;47.842;13.096;2022-11-15T09:04:39;7.20;;;5.13;;
8663;SDS011;4369;47.842;13.096;2022-11-15T09:07:07;4.00;;;3.60;;
8663;SDS011;4369;47.842;13.096;2022-11-15T09:09:35;4.37;;;3.17;;
8663;SDS011;4369;47.842;13.096;2022-11-15T09:12:03;3.70;;;3.40;;
8663;SDS011;4369;47.842;13.096;2022-11-15T09:14:31;5.27;;;3.30;;
8663;SDS011;4369;47.842;13.096;2022-11-15T09:16:58;4.03;;;3.63;;
8663;SDS011;4369;47.842;13.096;2022-11-15T09:19:25;3.80;;;3.37;;
8663;SDS011;4369;47.842;13.096;2022-11-15T09:21:52;5.23;;;3.60;;
8663;SDS011;4369;47.842;13.096;2022-11-15T09:24:19;3.63;;;3.33;;
8663;SDS011;4369;47.842;13.096;2022-11-15T09:26:47;3.93;;;3.17;;
8663;SDS011;4369;47.842;13.096;2022-11-15T09:29:17;4.63;;;4.00;;
8663;SDS011;4369;47.842;13.096;2022-11-15T09:31:44;4.40;;;3.90;;
8663;SDS011;4369;47.842;13.096;2022-11-15T09:34:11;3.60;;;3.30;;
8663;SDS011;4369;47.842;13.096;2022-11-15T09:36:38;4.03;;;3.63;;
8663;SDS011;4369;47.842;13.096;2022-11-15T09:39:05;3.87;;;3.57;;
8663;SDS011;4369;47.842;13.096;2022-11-15T09:41:35;5.43;;;3.93;;
8663;SDS011;4369;47.842;13.096;2022-11-15T09:44:21;3.90;;;3.50;;
8663;SDS011;4369;47.842;13.096;2022-11-15T09:47:06;4.00;;;3.60;;
8663;SDS011;4369;47.842;13.096;2022-11-15T09:49:45;6.17;;;3.80;;
8663;SDS011;4369;47.842;13.096;2022-11-15T09:52:17;3.90;;;3.50;;
8663;SDS011;4369;47.842;13.096;2022-11-15T09:54:46;6.37;;;3.70;;
8663;SDS011;4369;47.842;13.096;2022-11-15T09:57:15;4.50;;;3.40;;
8663;SDS011;4369;47.842;13.096;2022-11-15T10:00:04;5.53;;;4.27;;
8663;SDS011;4369;47.842;13.096;2022-11-15T10:02:43;3.63;;;3.20;;
8663;SDS011;4369;47.842;13.096;2022-11-15T10:05:21;3.40;;;3.10;;
8663;SDS011;4369;47.842;13.096;2022-11-15T10:07:52;7.23;;;3.83;;
8663;SDS011;4369;47.842;13.096;2022-11-15T10:10:28;3.73;;;3.40;;
8663;SDS011;4369;47.842;13.096;2022-11-15T10:13:12;3.60;;;3.30;;
8663;SDS011;4369;47.842;13.096;2022-11-15T10:19:23;2.83;;;2.63;;
8663;SDS011;4369;47.842;13.096;2022-11-15T10:21:59;3.08;;;2.88;;
8663;SDS011;4369;47.842;13.096;2022-11-15T10:24:35;2.90;;;2.70;;
8663;SDS011;4369;47.842;13.096;2022-11-15T10:27:07;2.85;;;2.40;;
8663;SDS011;4369;47.842;13.096;2022-11-15T10:29:40;3.63;;;2.80;;
8663;SDS011;4369;47.842;13.096;2022-11-15T10:32:09;2.58;;;2.47;;
8663;SDS011;4369;47.842;13.096;2022-11-15T10:34:38;3.25;;;2.95;;
8663;SDS011;4369;47.842;13.096;2022-11-15T10:37:05;3.00;;;2.80;;
8663;SDS011;4369;47.842;13.096;2022-11-15T10:39:32;3.70;;;3.40;;
8663;SDS011;4369;47.842;13.096;2022-11-15T10:42:02;2.90;;;2.70;;
8663;SDS011;4369;47.842;13.096;2022-11-15T10:44:42;3.10;;;2.90;;
8663;SDS011;4369;47.842;13.096;2022-11-15T10:47:20;3.22;;;2.92;;
8663;SDS011;4369;47.842;13.096;2022-11-15T10:49:54;2.90;;;2.72;;
8663;SDS011;4369;47.842;13.096;2022-11-15T10:52:23;3.47;;;2.80;;
8663;SDS011;4369;47.842;13.096;2022-11-15T10:54:51;2.70;;;2.50;;
8663;SDS011;4369;47.842;13.096;2022-11-15T10:57:21;3.17;;;2.80;;
8663;SDS011;4369;47.842;13.096;2022-11-15T10:59:52;3.50;;;3.20;;
8663;SDS011;4369;47.842;13.096;2022-11-15T11:02:27;3.78;;;2.92;;
8663;SDS011;4369;47.842;13.096;2022-11-15T11:04:57;3.47;;;3.28;;
8663;SDS011;4369;47.842;13.096;2022-11-15T11:07:25;4.10;;;3.80;;
8663;SDS011;4369;47.842;13.096;2022-11-15T11:09:57;4.18;;;3.33;;
8663;SDS011;4369;47.842;13.096;2022-11-15T11:12:30;3.55;;;3.25;;
8663;SDS011;4369;47.842;13.096;2022-11-15T11:14:59;3.20;;;3.00;;
8663;SDS011;4369;47.842;13.096;2022-11-15T11:17:33;3.67;;;3.40;;
8663;SDS011;4369;47.842;13.096;2022-11-15T11:20:14;4.10;;;3.15;;
8663;SDS011;4369;47.842;13.096;2022-11-15T11:22:50;3.65;;;3.35;;
8663;SDS011;4369;47.842;13.096;2022-11-15T11:25:28;3.65;;;3.35;;
8663;SDS011;4369;47.842;13.096;2022-11-15T11:28:14;3.45;;;2.92;;
8663;SDS011;4369;47.842;13.096;2022-11-15T11:30:54;3.15;;;2.97;;
8663;SDS011;4369;47.842;13.096;2022-11-15T11:33:33;3.88;;;2.92;;
8663;SDS011;4369;47.842;13.096;2022-11-15T11:36:09;2.72;;;2.53;;
8663;SDS011;4369;47.842;13.096;2022-11-15T11:38:53;5.18;;;4.05;;
8663;SDS011;4369;47.842;13.096;2022-11-15T11:41:42;3.88;;;3.50;;
8663;SDS011;4369;47.842;13.096;2022-11-15T11:44:18;3.95;;;3.65;;
8663;SDS011;4369;47.842;13.096;2022-11-15T11:46:55;4.25;;;3.90;;
8663;SDS011;4369;47.842;13.096;2022-11-15T11:49:26;4.05;;;3.75;;
8663;SDS011;4369;47.842;13.096;2022-11-15T11:52:01;3.53;;;3.33;;
8663;SDS011;4369;47.842;13.096;2022-11-15T11:54:38;3.80;;;3.50;;
8663;SDS011;4369;47.842;13.096;2022-11-15T11:57:11;3.10;;;2.90;;
8663;SDS011;4369;47.842;13.096;2022-11-15T11:59:49;2.80;;;2.60;;
8663;SDS011;4369;47.842;13.096;2022-11-15T12:02:21;2.58;;;2.47;;
8663;SDS011;4369;47.842;13.096;2022-11-15T12:04:56;2.85;;;2.65;;
8663;SDS011;4369;47.842;13.096;2022-11-15T12:07:31;16.77;;;4.53;;
8663;SDS011;4369;47.842;13.096;2022-11-15T12:10:02;3.20;;;2.92;;
8663;SDS011;4369;47.842;13.096;2022-11-15T12:12:36;3.03;;;2.65;;
8663;SDS011;4369;47.842;13.096;2022-11-15T12:15:10;3.50;;;3.30;;
8663;SDS011;4369;47.842;13.096;2022-11-15T12:17:45;4.15;;;3.60;;
8663;SDS011;4369;47.842;13.096;2022-11-15T12:20:16;3.85;;;3.55;;
8663;SDS011;4369;47.842;13.096;2022-11-15T12:22:49;3.20;;;3.00;;
8663;SDS011;4369;47.842;13.096;2022-11-15T12:25:21;4.50;;;4.10;;
8663;SDS011;4369;47.842;13.096;2022-11-15T12:27:52;5.13;;;4.20;;
8663;SDS011;4369;47.842;13.096;2022-11-15T12:30:22;4.32;;;4.03;;
8663;SDS011;4369;47.842;13.096;2022-11-15T12:32:52;4.25;;;3.95;;
8663;SDS011;4369;47.842;13.096;2022-11-15T12:35:24;4.07;;;3.75;;
8663;SDS011;4369;47.842;13.096;2022-11-15T12:37:55;7.70;;;5.82;;
8663;SDS011;4369;47.842;13.096;2022-11-15T12:40:26;6.60;;;5.15;;
8663;SDS011;4369;47.842;13.096;2022-11-15T12:45:54;5.93;;;5.40;;
8663;SDS011;4369;47.842;13.096;2022-11-15T12:57:52;6.32;;;5.72;;
8663;SDS011;4369;47.842;13.096;2022-11-15T13:03:21;5.80;;;5.30;;
8663;SDS011;4369;47.842;13.096;2022-11-15T13:06:01;6.22;;;5.20;;
8663;SDS011;4369;47.842;13.096;2022-11-15T13:08:52;5.15;;;4.65;;
8663;SDS011;4369;47.842;13.096;2022-11-15T13:17:21;4.90;;;4.40;;
8663;SDS011;4369;47.842;13.096;2022-11-15T13:20:01;5.47;;;4.22;;
8663;SDS011;4369;47.842;13.096;2022-11-15T13:22:44;4.90;;;4.50;;
8663;SDS011;4369;47.842;13.096;2022-11-15T13:28:30;4.65;;;4.25;;
8663;SDS011;4369;47.842;13.096;2022-11-15T13:31:01;5.22;;;4.53;;
8663;SDS011;4369;47.842;13.096;2022-11-15T13:33:31;5.60;;;5.10;;
8663;SDS011;4369;47.842;13.096;2022-11-15T13:36:00;5.43;;;4.80;;
8663;SDS011;4369;47.842;13.096;2022-11-15T13:38:31;5.97;;;5.47;;
8663;SDS011;4369;47.842;13.096;2022-11-15T13:40:59;5.35;;;4.85;;
8663;SDS011;4369;47.842;13.096;2022-11-15T13:43:40;5.47;;;4.97;;
8663;SDS011;4369;47.842;13.096;2022-11-15T13:46:10;5.20;;;4.80;;
8663;SDS011;4369;47.842;13.096;2022-11-15T13:48:38;5.35;;;4.85;;
8663;SDS011;4369;47.842;13.096;2022-11-15T13:51:08;5.50;;;4.82;;
8663;SDS011;4369;47.842;13.096;2022-11-15T13:53:41;5.40;;;4.90;;
8663;SDS011;4369;47.842;13.096;2022-11-15T13:56:11;6.18;;;4.95;;
8663;SDS011;4369;47.842;13.096;2022-11-15T13:58:38;5.90;;;5.18;;
8663;SDS011;4369;47.842;13.096;2022-11-15T14:01:05;6.40;;;5.10;;
8663;SDS011;4369;47.842;13.096;2022-11-15T14:03:41;6.45;;;5.68;;
8663;SDS011;4369;47.842;13.096;2022-11-15T14:06:16;5.80;;;5.38;;
8663;SDS011;4369;47.842;13.096;2022-11-15T14:08:57;8.20;;;6.20;;
8663;SDS011;4369;47.842;13.096;2022-11-15T14:14:31;6.72;;;5.88;;
8663;SDS011;4369;47.842;13.096;2022-11-15T14:16:58;6.82;;;5.57;;
8663;SDS011;4369;47.842;13.096;2022-11-15T14:19:35;6.03;;;5.45;;
8663;SDS011;4369;47.842;13.096;2022-11-15T14:27:25;7.37;;;6.67;;
8663;SDS011;4369;47.842;13.096;2022-11-15T14:32:37;13.07;;;9.83;;
8663;SDS011;4369;47.842;13.096;2022-11-15T14:35:11;12.00;;;8.30;;
8663;SDS011;4369;47.842;13.096;2022-11-15T14:37:41;12.43;;;7.30;;
8663;SDS011;4369;47.842;13.096;2022-11-15T14:40:11;10.40;;;7.43;;
8663;SDS011;4369;47.842;13.096;2022-11-15T14:42:41;10.43;;;7.77;;
8663;SDS011;4369;47.842;13.096;2022-11-15T14:45:10;9.40;;;8.33;;
8663;SDS011;4369;47.842;13.096;2022-11-15T14:47:40;12.23;;;8.70;;
8663;SDS011;4369;47.842;13.096;2022-11-15T14:50:12;10.93;;;9.60;;
8663;SDS011;4369;47.842;13.096;2022-11-15T14:52:40;14.60;;;9.23;;
8663;SDS011;4369;47.842;13.096;2022-11-15T14:55:12;12.20;;;8.17;;
8663;SDS011;4369;47.842;13.096;2022-11-15T14:57:43;8.97;;;7.93;;
8663;SDS011;4369;47.842;13.096;2022-11-15T15:00:11;11.17;;;8.50;;
8663;SDS011;4369;47.842;13.096;2022-11-15T15:02:40;10.17;;;8.23;;
8663;SDS011;4369;47.842;13.096;2022-11-15T15:05:18;10.50;;;9.10;;
8663;SDS011;4369;47.842;13.096;2022-11-15T15:07:47;9.67;;;8.67;;
8663;SDS011;4369;47.842;13.096;2022-11-15T15:10:14;10.80;;;8.27;;
8663;SDS011;4369;47.842;13.096;2022-11-15T15:12:42;9.77;;;8.37;;
8663;SDS011;4369;47.842;13.096;2022-11-15T15:15:13;13.37;;;8.63;;
8663;SDS011;4369;47.842;13.096;2022-11-15T15:17:41;12.07;;;8.57;;
8663;SDS011;4369;47.842;13.096;2022-11-15T15:20:08;11.67;;;8.63;;
8663;SDS011;4369;47.842;13.096;2022-11-15T15:22:37;11.73;;;8.83;;
8663;SDS011;4369;47.842;13.096;2022-11-15T15:25:09;10.53;;;9.43;;
8663;SDS011;4369;47.842;13.096;2022-11-15T15:27:46;12.13;;;9.07;;
8663;SDS011;4369;47.842;13.096;2022-11-15T15:30:13;11.20;;;9.23;;
8663;SDS011;4369;47.842;13.096;2022-11-15T15:32:40;10.73;;;9.40;;
8663;SDS011;4369;47.842;13.096;2022-11-15T15:35:07;12.73;;;9.80;;
8663;SDS011;4369;47.842;13.096;2022-11-15T15:37:39;11.57;;;10.20;;
8663;SDS011;4369;47.842;13.096;2022-11-15T15:40:10;14.27;;;10.73;;
8663;SDS011;4369;47.842;13.096;2022-11-15T15:42:41;16.90;;;11.87;;
8663;SDS011;4369;47.842;13.096;2022-11-15T15:45:08;15.37;;;10.20;;
8663;SDS011;4369;47.842;13.096;2022-11-15T15:47:36;14.20;;;10.67;;
8663;SDS011;4369;47.842;13.096;2022-11-15T15:50:03;13.23;;;10.43;;
8663;SDS011;4369;47.842;13.096;2022-11-15T15:52:39;16.70;;;10.93;;
8663;SDS011;4369;47.842;13.096;2022-11-15T15:55:06;17.43;;;12.20;;
8663;SDS011;4369;47.842;13.096;2022-11-15T15:57:35;18.80;;;11.83;;
8663;SDS011;4369;47.842;13.096;2022-11-15T16:00:02;17.20;;;12.43;;